Samut Prakan, Thailand
Current Conditions -  °F | °C
As of 3:00 PM on Saturday 25 Oct 2014 (Local Time) from VTBS Reporting Station
Broken Clouds Broken Clouds  
Wind Chill: 33°   Ceiling: 30000
Heat Index: 37°   Visibility: 6mi
Dew Point: 22°   Wind: 3mph
Humidity: 52%   Direction: 190°S
Pressure: 29.8"   Gusts: NA
Location:  13.61°N, 100.61°E
Report Text: VTBS 250800Z 19003KT 140V280 9999 FEW018CB SCT035 BKN300 33/22 Q1009 NOSIG
Loading
Personal Weather Stations






























Interactive Weather Map
Tropical Storm Tracking
New forecast layout! Learn more

10-Day Weather Forecast

Advertisements
Track Severe Weather on mobile